Astor — C6JR3 — position and weather

sailwx.info

Track history (hours):
 
Tides and Currents Weather Stations Pressure Air Temp Water Temp Dewpoint Dewpoint Depression Visibility Wind Speed Wind Dir Waves Ship Positions

Astor

Operator: Passat Ship Management Ltd

Last reported at 2017-Jul-18 16:06 UTC. Time now 2017-Jul-21 02:34 UTC.
Position N 62°43' W 006°60'.

Length 176 m; draft 6.1 m.

Type: Ship. MMSI: 308214000.

Date/timePositionNaut miles runAvg speedWind from/ knotsBaromVisibWave heightAir tempDewpointWater temp
2017-Jul-18 16:06N 62°43' W 006°60'3716.3
2017-Jul-18 13:51N 62°18' W 006°02'616.9
2017-Jul-18 13:30N 62°13' W 005°54'816.7
2017-Jul-18 13:00N 62°07' W 005°43'816.4
2017-Jul-18 12:30N 62°00' W 005°32'816.5
2017-Jul-18 12:00N 61°54' W 005°21'816.3
2017-Jul-18 11:31N 61°48' W 005°09'816.3
2017-Jul-18 11:00N 61°42' W 004°58'816.1
2017-Jul-18 10:30N 61°35' W 004°47'1015.8
2017-Jul-18 09:51N 61°28' W 004°33'59514.9
2017-Jul-16 17:52N 53°60' E 007°40'514.9
2017-Jul-16 17:31N 53°55' E 007°44'611.2
2017-Jul-16 16:58N 53°52' E 007°53'613.8
2017-Jul-16 16:30N 53°50' E 008°04'713.7
2017-Jul-16 16:00N 53°46' E 008°12'712.9
2017-Jul-16 15:30N 53°42' E 008°21'511.0
2017-Jul-16 15:00N 53°38' E 008°27'5 9.2
2017-Jul-16 14:30N 53°34' E 008°32'1 1.7
2017-Jul-16 13:59N 53°34' E 008°33'0 0.0
2017-Jul-16 13:29N 53°34' E 008°33'0 0.0
2017-Jul-16 12:59N 53°34' E 008°33'0 0.0
2017-Jul-16 12:29N 53°34' E 008°33'0 0.0
2017-Jul-16 11:58N 53°34' E 008°33'0 0.0
2017-Jul-16 11:28N 53°34' E 008°33'0 0.0
2017-Jul-16 10:58N 53°34' E 008°33'0 0.0
2017-Jul-16 10:28N 53°34' E 008°33'0 0.0
2017-Jul-16 09:58N 53°34' E 008°33'0 0.0
2017-Jul-16 09:18N 53°34' E 008°33'0 0.0
2017-Jul-16 09:00N 53°34' E 008°33'0 0.0
2017-Jul-16 08:30N 53°34' E 008°33'0 0.0
2017-Jul-16 08:00N 53°34' E 008°33'0 0.0
2017-Jul-16 07:30N 53°34' E 008°33'0 0.0
2017-Jul-16 06:59N 53°34' E 008°33'0 0.0
2017-Jul-16 06:29N 53°34' E 008°33'0 0.0
2017-Jul-16 06:00N 53°34' E 008°33'3 5.9
2017-Jul-16 05:30N 53°36' E 008°30'611.8
2017-Jul-16 05:00N 53°40' E 008°23'612.3
2017-Jul-16 04:30N 53°44' E 008°15'612.4
2017-Jul-16 04:00N 53°48' E 008°08'612.4
2017-Jul-16 03:30N 53°51' E 007°58'611.3
2017-Jul-16 02:59N 53°52' E 007°49'612.6
2017-Jul-16 02:30N 53°56' E 007°40'714.0
2017-Jul-16 02:00N 54°02' E 007°34'37114.4
2017-Jul-15 00:12N 57°36' W 001°25'314.5
2017-Jul-14 23:59N 57°38' W 001°30'714.1
2017-Jul-14 23:30N 57°42' W 001°40'714.2
2017-Jul-14 23:00N 57°44' W 001°53'714.7
2017-Jul-14 22:30N 57°46' W 002°06'  
2017-Jul-12 16:40N 61°45' W 006°01'315.7
2017-Jul-12 16:31N 61°47' W 006°05'815.7
2017-Jul-12 16:00N 61°52' W 006°17'815.5
2017-Jul-12 15:30N 61°58' W 006°29'714.5
2017-Jul-12 15:01N 62°02' W 006°41'8 7.7
2017-Jul-12 13:59N 62°06' W 006°56'0 0.0
2017-Jul-12 13:29N 62°06' W 006°56'0 0.0
2017-Jul-12 12:58N 62°06' W 006°56'0 0.0
2017-Jul-12 12:28N 62°06' W 006°56'0 0.0
2017-Jul-12 11:58N 62°06' W 006°56'0 0.0
2017-Jul-12 11:28N 62°06' W 006°56'0 0.0
2017-Jul-12 11:01N 62°06' W 006°56'0 0.0
2017-Jul-12 10:30N 62°06' W 006°56'0 0.0
2017-Jul-12 10:00N 62°06' W 006°56'0 0.0
2017-Jul-12 09:27N 62°06' W 006°56'0 0.0
2017-Jul-12 09:00N 62°06' W 006°56'0 0.0
2017-Jul-12 08:29N 62°06' W 006°56'0 0.0
2017-Jul-12 07:59N 62°06' W 006°56'0 0.0
2017-Jul-12 07:29N 62°06' W 006°56'0 0.0
2017-Jul-12 06:59N 62°06' W 006°56'0 0.0
2017-Jul-12 06:29N 62°06' W 006°56'0 0.0
2017-Jul-12 05:58N 62°06' W 006°56'0 0.0
2017-Jul-12 05:28N 62°06' W 006°56'0 0.0
2017-Jul-12 04:58N 62°06' W 006°56'2 3.7
2017-Jul-12 04:30N 62°07' W 006°52'611.6
2017-Jul-12 04:00N 62°03' W 006°44'5 9.3
2017-Jul-12 03:30N 61°58' W 006°43'4 8.5
2017-Jul-12 03:00N 61°55' W 006°50'611.1
2017-Jul-12 02:31N 61°57' W 007°02'714.0
2017-Jul-12 02:00N 61°58' W 007°16'714.4
2017-Jul-12 01:30N 61°59' W 007°32'  
Track history (hours):
 
Tides and Currents Weather Stations Pressure Air Temp Water Temp Dewpoint Dewpoint Depression Visibility Wind Speed Wind Dir Waves Ship Positions

Astor

Operator: Passat Ship Management Ltd

Last reported at 2017-Jul-18 16:06 UTC. Time now 2017-Jul-21 02:34 UTC.
Position N 62°43' W 006°60'.

Length 176 m; draft 6.1 m.

Type: Ship. MMSI: 308214000.

Date/timePositionNaut miles runAvg speedWind from/ knotsBaromVisibWave heightAir tempDewpointWater temp
2017-Jul-18 16:06N 62°43' W 006°60'3716.3
2017-Jul-18 13:51N 62°18' W 006°02'616.9
2017-Jul-18 13:30N 62°13' W 005°54'816.7
2017-Jul-18 13:00N 62°07' W 005°43'816.4
2017-Jul-18 12:30N 62°00' W 005°32'816.5
2017-Jul-18 12:00N 61°54' W 005°21'816.3
2017-Jul-18 11:31N 61°48' W 005°09'816.3
2017-Jul-18 11:00N 61°42' W 004°58'816.1
2017-Jul-18 10:30N 61°35' W 004°47'1015.8
2017-Jul-18 09:51N 61°28' W 004°33'59514.9
2017-Jul-16 17:52N 53°60' E 007°40'514.9
2017-Jul-16 17:31N 53°55' E 007°44'611.2
2017-Jul-16 16:58N 53°52' E 007°53'613.8
2017-Jul-16 16:30N 53°50' E 008°04'713.7
2017-Jul-16 16:00N 53°46' E 008°12'712.9
2017-Jul-16 15:30N 53°42' E 008°21'511.0
2017-Jul-16 15:00N 53°38' E 008°27'5 9.2
2017-Jul-16 14:30N 53°34' E 008°32'1 1.7
2017-Jul-16 13:59N 53°34' E 008°33'0 0.0
2017-Jul-16 13:29N 53°34' E 008°33'0 0.0
2017-Jul-16 12:59N 53°34' E 008°33'0 0.0
2017-Jul-16 12:29N 53°34' E 008°33'0 0.0
2017-Jul-16 11:58N 53°34' E 008°33'0 0.0
2017-Jul-16 11:28N 53°34' E 008°33'0 0.0
2017-Jul-16 10:58N 53°34' E 008°33'0 0.0
2017-Jul-16 10:28N 53°34' E 008°33'0 0.0
2017-Jul-16 09:58N 53°34' E 008°33'0 0.0
2017-Jul-16 09:18N 53°34' E 008°33'0 0.0
2017-Jul-16 09:00N 53°34' E 008°33'0 0.0
2017-Jul-16 08:30N 53°34' E 008°33'0 0.0
2017-Jul-16 08:00N 53°34' E 008°33'0 0.0
2017-Jul-16 07:30N 53°34' E 008°33'0 0.0
2017-Jul-16 06:59N 53°34' E 008°33'0 0.0
2017-Jul-16 06:29N 53°34' E 008°33'0 0.0
2017-Jul-16 06:00N 53°34' E 008°33'3 5.9
2017-Jul-16 05:30N 53°36' E 008°30'611.8
2017-Jul-16 05:00N 53°40' E 008°23'612.3
2017-Jul-16 04:30N 53°44' E 008°15'612.4
2017-Jul-16 04:00N 53°48' E 008°08'612.4
2017-Jul-16 03:30N 53°51' E 007°58'611.3
2017-Jul-16 02:59N 53°52' E 007°49'612.6
2017-Jul-16 02:30N 53°56' E 007°40'714.0
2017-Jul-16 02:00N 54°02' E 007°34'37114.4
2017-Jul-15 00:12N 57°36' W 001°25'314.5
2017-Jul-14 23:59N 57°38' W 001°30'714.1
2017-Jul-14 23:30N 57°42' W 001°40'714.2
2017-Jul-14 23:00N 57°44' W 001°53'714.7
2017-Jul-14 22:30N 57°46' W 002°06'  
2017-Jul-12 16:40N 61°45' W 006°01'315.7
2017-Jul-12 16:31N 61°47' W 006°05'815.7
2017-Jul-12 16:00N 61°52' W 006°17'815.5
2017-Jul-12 15:30N 61°58' W 006°29'714.5
2017-Jul-12 15:01N 62°02' W 006°41'8 7.7
2017-Jul-12 13:59N 62°06' W 006°56'0 0.0
2017-Jul-12 13:29N 62°06' W 006°56'0 0.0
2017-Jul-12 12:58N 62°06' W 006°56'0 0.0
2017-Jul-12 12:28N 62°06' W 006°56'0 0.0
2017-Jul-12 11:58N 62°06' W 006°56'0 0.0
2017-Jul-12 11:28N 62°06' W 006°56'0 0.0
2017-Jul-12 11:01N 62°06' W 006°56'0 0.0
2017-Jul-12 10:30N 62°06' W 006°56'0 0.0
2017-Jul-12 10:00N 62°06' W 006°56'0 0.0
2017-Jul-12 09:27N 62°06' W 006°56'0 0.0
2017-Jul-12 09:00N 62°06' W 006°56'0 0.0
2017-Jul-12 08:29N 62°06' W 006°56'0 0.0
2017-Jul-12 07:59N 62°06' W 006°56'0 0.0
2017-Jul-12 07:29N 62°06' W 006°56'0 0.0
2017-Jul-12 06:59N 62°06' W 006°56'0 0.0
2017-Jul-12 06:29N 62°06' W 006°56'0 0.0
2017-Jul-12 05:58N 62°06' W 006°56'0 0.0
2017-Jul-12 05:28N 62°06' W 006°56'0 0.0
2017-Jul-12 04:58N 62°06' W 006°56'2 3.7
2017-Jul-12 04:30N 62°07' W 006°52'611.6
2017-Jul-12 04:00N 62°03' W 006°44'5 9.3
2017-Jul-12 03:30N 61°58' W 006°43'4 8.5
2017-Jul-12 03:00N 61°55' W 006°50'611.1
2017-Jul-12 02:31N 61°57' W 007°02'714.0
2017-Jul-12 02:00N 61°58' W 007°16'714.4
2017-Jul-12 01:30N 61°59' W 007°32'  

Dump ship's entire track history